Time;durP1;ratioP1;P1;durP2;ratioP2;P2;SDS_P1;SDS_P2;PMS_P1;PMS_P2;Temp;Humidity;BMP_temperature;BMP_pressure;BME280_temperature;BME280_humidity;BME280_pressure;Samples;Min_cycle;Max_cycle;Signal;HPM_P1;HPM_P2
2022/10/13 00:01:29;;;;;;;;;30.75;30.00;;;;;;;;5124431;27;45273;-74
2022/10/13 00:03:55;;;;;;;;;26.25;26.25;;;;;;;;5120892;27;45277;-72
2022/10/13 00:06:22;;;;;;;;;22.25;22.25;;;;;;;;5122109;27;45271;-76
2022/10/13 00:08:47;;;;;;;;;23.50;23.00;;;;;;;;5121850;27;45171;-71
2022/10/13 00:11:15;;;;;;;;;26.75;26.75;;;;;;;;5123061;27;45103;-71
2022/10/13 00:13:40;;;;;;;;;26.25;26.25;;;;;;;;5123340;27;46206;-77
2022/10/13 00:16:06;;;;;;;;;21.75;21.75;;;;;;;;5123721;27;45234;-73
2022/10/13 00:18:31;;;;;;;;;26.75;26.75;;;;;;;;5121135;27;45295;-80
2022/10/13 00:20:56;;;;;;;;;27.50;27.50;;;;;;;;5119018;27;45542;-74
2022/10/13 00:23:22;;;;;;;;;21.00;21.00;;;;;;;;5118007;27;45424;-76
2022/10/13 00:25:48;;;;;;;;;27.75;27.75;;;;;;;;5119191;27;45357;-73
2022/10/13 00:28:14;;;;;;;;;23.50;23.50;;;;;;;;5119848;27;45438;-74
2022/10/13 00:30:40;;;;;;;;;24.75;24.75;;;;;;;;5119812;27;45563;-73
2022/10/13 00:33:05;;;;;;;;;25.25;25.00;;;;;;;;5119357;27;47174;-76
2022/10/13 00:35:30;;;;;;;;;23.50;23.50;;;;;;;;5118296;27;45318;-73
2022/10/13 00:37:55;;;;;;;;;27.25;27.25;;;;;;;;5118824;27;45156;-74
2022/10/13 00:40:21;;;;;;;;;25.50;25.50;;;;;;;;5118560;27;45434;-77
2022/10/13 00:42:46;;;;;;;;;24.50;24.50;;;;;;;;5119515;27;46048;-72
2022/10/13 00:45:11;;;;;;;;;23.75;23.75;;;;;;;;5118638;27;45324;-71
2022/10/13 00:47:40;;;;;;;;;24.75;24.75;;;;;;;;5119600;27;45334;-78
2022/10/13 00:50:08;;;;;;;;;23.25;23.25;;;;;;;;5118325;27;44950;-78
2022/10/13 00:52:35;;;;;;;;;24.25;24.25;;;;;;;;5117856;27;46392;-77
2022/10/13 00:55:02;;;;;;;;;27.75;26.00;;;;;;;;5120061;27;45239;-75
2022/10/13 00:57:28;;;;;;;;;25.75;25.00;;;;;;;;5117962;27;45312;-77
2022/10/13 00:59:54;;;;;;;;;29.50;28.75;;;;;;;;5116544;27;45255;-74
2022/10/13 01:02:20;;;;;;;;;33.25;32.00;;;;;;;;5118914;27;46238;-78
2022/10/13 01:04:46;;;;;;;;;36.00;32.00;;;;;;;;5122720;27;45316;-81
2022/10/13 01:07:13;;;;;;;;;30.75;29.00;;;;;;;;5122155;27;45396;-80
2022/10/13 01:09:41;;;;;;;;;16.00;16.00;;;;;;;;5119206;27;45299;-79
2022/10/13 01:12:24;;;;;;;;;27.25;26.50;;;;;;;;5119029;27;45400;-81
2022/10/13 01:15:10;;;;;;;;;27.00;27.00;;;;;;;;5120349;27;45292;-72
2022/10/13 01:17:40;;;;;;;;;29.00;29.00;;;;;;;;5118726;27;45266;-74
2022/10/13 01:20:12;;;;;;;;;26.25;26.25;;;;;;;;5119021;27;45281;-74
2022/10/13 01:22:55;;;;;;;;;30.50;29.25;;;;;;;;5118452;27;46152;-72
2022/10/13 01:25:39;;;;;;;;;31.75;30.50;;;;;;;;5118586;27;45399;-73
2022/10/13 01:28:13;;;;;;;;;28.25;28.25;;;;;;;;5119333;27;45357;-73
2022/10/13 01:30:47;;;;;;;;;25.50;25.50;;;;;;;;5121281;27;46080;-73
2022/10/13 01:33:20;;;;;;;;;29.75;29.75;;;;;;;;5120792;27;45783;-73
2022/10/13 01:35:45;;;;;;;;;33.25;31.25;;;;;;;;5119643;27;45451;-71
2022/10/13 01:38:10;;;;;;;;;29.00;28.25;;;;;;;;5123151;27;45411;-72
2022/10/13 01:40:38;;;;;;;;;29.75;29.75;;;;;;;;5133751;27;45254;-75
2022/10/13 01:43:09;;;;;;;;;28.75;28.75;;;;;;;;5136421;27;46424;-75
2022/10/13 01:46:01;;;;;;;;;28.25;28.25;;;;;;;;5129445;27;45282;-76
2022/10/13 01:48:27;;;;;;;;;28.75;28.00;;;;;;;;5118009;27;45263;-78
2022/10/13 01:50:53;;;;;;;;;27.75;27.75;;;;;;;;5122069;27;45159;-77
2022/10/13 01:53:19;;;;;;;;;29.50;29.50;;;;;;;;5122688;27;46510;-82
2022/10/13 01:55:58;;;;;;;;;23.25;23.25;;;;;;;;5128470;27;45335;-77
2022/10/13 01:58:25;;;;;;;;;25.75;25.75;;;;;;;;5123381;27;45318;-78
2022/10/13 02:00:58;;;;;;;;;31.75;30.75;;;;;;;;5122611;27;45318;-74
2022/10/13 02:03:30;;;;;;;;;31.50;29.75;;;;;;;;5123544;27;46658;-82
2022/10/13 02:06:05;;;;;;;;;25.75;25.75;;;;;;;;5124295;27;45393;-78
2022/10/13 02:08:36;;;;;;;;;22.00;22.00;;;;;;;;5123988;27;45544;-78
2022/10/13 02:11:28;;;;;;;;;26.75;26.75;;;;;;;;5122371;27;45189;-78
2022/10/13 02:13:53;;;;;;;;;27.00;26.00;;;;;;;;5118633;27;46191;-79
2022/10/13 02:16:22;;;;;;;;;27.25;27.25;;;;;;;;5122882;27;45366;-75
2022/10/13 02:18:48;;;;;;;;;25.00;25.00;;;;;;;;5121718;27;45372;-74
2022/10/13 02:21:14;;;;;;;;;24.25;24.25;;;;;;;;5121326;27;45303;-81
2022/10/13 02:23:41;;;;;;;;;25.50;25.50;;;;;;;;5120039;27;47436;-81
2022/10/13 02:26:07;;;;;;;;;23.75;23.75;;;;;;;;5118931;27;45316;-77
2022/10/13 02:28:32;;;;;;;;;22.25;22.25;;;;;;;;5120595;27;45466;-79
2022/10/13 02:30:57;;;;;;;;;25.50;24.75;;;;;;;;5123775;27;45408;-81
2022/10/13 02:33:22;;;;;;;;;26.25;26.00;;;;;;;;5125647;27;45454;-73
2022/10/13 02:35:48;;;;;;;;;23.00;23.00;;;;;;;;5121435;27;45317;-74
2022/10/13 02:38:13;;;;;;;;;23.25;23.25;;;;;;;;5121139;27;45284;-79
2022/10/13 02:40:38;;;;;;;;;23.25;23.25;;;;;;;;5120991;27;45569;-78
2022/10/13 02:43:04;;;;;;;;;27.00;24.50;;;;;;;;5120689;27;46090;-76
2022/10/13 02:45:29;;;;;;;;;22.00;21.75;;;;;;;;5121639;27;45477;-74
2022/10/13 02:47:55;;;;;;;;;22.00;22.00;;;;;;;;5121342;27;45443;-73
2022/10/13 02:50:20;;;;;;;;;23.50;23.50;;;;;;;;5122058;27;45432;-77
2022/10/13 02:52:45;;;;;;;;;20.50;20.50;;;;;;;;5120891;27;45321;-77
2022/10/13 02:55:10;;;;;;;;;22.00;22.00;;;;;;;;5121635;27;45255;-78
2022/10/13 02:57:36;;;;;;;;;23.25;23.25;;;;;;;;5121453;27;45301;-81
2022/10/13 03:00:01;;;;;;;;;25.00;24.00;;;;;;;;5124249;27;45264;-80
2022/10/13 03:02:26;;;;;;;;;20.25;20.25;;;;;;;;5123389;27;46257;-82
2022/10/13 03:04:51;;;;;;;;;24.00;22.75;;;;;;;;5121224;27;45217;-76
2022/10/13 03:07:17;;;;;;;;;22.25;22.25;;;;;;;;5121350;27;45234;-83
2022/10/13 03:09:42;;;;;;;;;19.75;19.75;;;;;;;;5120851;27;45478;-81
2022/10/13 03:12:07;;;;;;;;;23.00;23.00;;;;;;;;5120693;27;45291;-77
2022/10/13 03:14:33;;;;;;;;;23.00;23.00;;;;;;;;5121030;27;45189;-79
2022/10/13 03:16:58;;;;;;;;;23.25;23.25;;;;;;;;5120693;27;45224;-77
2022/10/13 03:19:23;;;;;;;;;24.50;24.50;;;;;;;;5123953;27;45252;-78
2022/10/13 03:21:48;;;;;;;;;22.50;22.50;;;;;;;;5132596;27;45334;-76
2022/10/13 03:24:14;;;;;;;;;25.75;24.00;;;;;;;;5134264;27;44799;-74
2022/10/13 03:26:39;;;;;;;;;24.75;24.75;;;;;;;;5124536;27;45396;-77
2022/10/13 03:29:04;;;;;;;;;22.50;22.50;;;;;;;;5122977;27;45465;-75
2022/10/13 03:31:29;;;;;;;;;23.50;23.50;;;;;;;;5125481;27;46028;-77
2022/10/13 03:33:55;;;;;;;;;22.75;22.25;;;;;;;;5124114;27;45421;-73
2022/10/13 03:36:20;;;;;;;;;20.50;20.50;;;;;;;;5120983;27;45255;-73
2022/10/13 03:38:45;;;;;;;;;21.75;21.75;;;;;;;;5120099;27;45251;-76
2022/10/13 03:41:15;;;;;;;;;21.50;20.25;;;;;;;;5120880;27;45449;-77
2022/10/13 03:43:41;;;;;;;;;17.50;17.50;;;;;;;;5122070;27;45303;-79
2022/10/13 03:46:07;;;;;;;;;21.50;21.50;;;;;;;;5124809;27;45379;-74
2022/10/13 03:48:33;;;;;;;;;17.75;17.75;;;;;;;;5124998;27;45301;-78
2022/10/13 03:50:58;;;;;;;;;18.25;18.25;;;;;;;;5122006;27;45254;-79
2022/10/13 03:53:24;;;;;;;;;18.75;18.00;;;;;;;;5123240;27;45224;-80
2022/10/13 03:55:53;;;;;;;;;19.75;19.50;;;;;;;;5123685;27;45344;-82
2022/10/13 03:58:19;;;;;;;;;17.50;17.50;;;;;;;;5123481;27;45412;-77
2022/10/13 04:00:44;;;;;;;;;20.00;20.00;;;;;;;;5123138;27;45375;-79
2022/10/13 04:03:10;;;;;;;;;23.50;23.50;;;;;;;;5120994;27;45353;-80
2022/10/13 04:05:35;;;;;;;;;20.50;20.50;;;;;;;;5121484;27;45265;-79
2022/10/13 04:08:00;;;;;;;;;25.00;22.25;;;;;;;;5121241;27;45377;-78
2022/10/13 04:10:25;;;;;;;;;18.75;18.75;;;;;;;;5122158;27;45478;-79
2022/10/13 04:12:51;;;;;;;;;22.00;22.00;;;;;;;;5122025;27;45402;-77
2022/10/13 04:15:16;;;;;;;;;20.00;20.00;;;;;;;;5122923;27;45316;-79
2022/10/13 04:17:41;;;;;;;;;21.75;21.75;;;;;;;;5134799;27;45206;-75
2022/10/13 04:20:07;;;;;;;;;21.50;21.50;;;;;;;;5130737;27;45257;-75
2022/10/13 04:22:32;;;;;;;;;19.00;19.00;;;;;;;;5121579;27;45399;-76
2022/10/13 04:24:57;;;;;;;;;27.00;25.25;;;;;;;;5119923;27;45322;-77
2022/10/13 04:27:22;;;;;;;;;22.75;22.75;;;;;;;;5118423;27;45239;-76
2022/10/13 04:29:48;;;;;;;;;21.00;20.00;;;;;;;;5119758;27;46098;-73
2022/10/13 04:32:13;;;;;;;;;22.25;22.25;;;;;;;;5122024;27;45334;-76
2022/10/13 04:34:38;;;;;;;;;19.00;18.50;;;;;;;;5121104;27;45280;-73
2022/10/13 04:37:03;;;;;;;;;18.75;18.75;;;;;;;;5120406;27;45273;-77
2022/10/13 04:39:29;;;;;;;;;19.00;19.00;;;;;;;;5120034;27;45359;-75
2022/10/13 04:41:54;;;;;;;;;17.25;17.25;;;;;;;;5119511;27;45456;-77
2022/10/13 04:44:20;;;;;;;;;20.50;20.00;;;;;;;;5119837;27;45376;-78
2022/10/13 04:46:45;;;;;;;;;20.75;20.75;;;;;;;;5119699;27;45370;-72
2022/10/13 04:49:10;;;;;;;;;21.00;21.00;;;;;;;;5117394;27;47859;-77
2022/10/13 04:51:35;;;;;;;;;22.00;21.25;;;;;;;;5117811;27;45533;-75
2022/10/13 04:54:01;;;;;;;;;21.50;21.50;;;;;;;;5121105;27;45292;-73
2022/10/13 04:56:26;;;;;;;;;24.25;24.25;;;;;;;;5126319;27;45536;-76
2022/10/13 04:58:52;;;;;;;;;20.50;20.50;;;;;;;;5118910;27;46942;-72
2022/10/13 05:01:21;;;;;;;;;22.00;21.50;;;;;;;;5118890;27;45333;-73
2022/10/13 05:03:46;;;;;;;;;22.25;22.25;;;;;;;;5119818;27;45330;-75
2022/10/13 05:06:15;;;;;;;;;20.25;20.00;;;;;;;;5119746;27;45649;-71
2022/10/13 05:08:41;;;;;;;;;21.25;21.25;;;;;;;;5126684;27;46136;-74
2022/10/13 05:11:06;;;;;;;;;21.25;21.25;;;;;;;;5134711;27;45316;-83
2022/10/13 05:13:31;;;;;;;;;23.75;23.75;;;;;;;;5128217;27;45268;-85
2022/10/13 05:15:56;;;;;;;;;21.50;21.25;;;;;;;;5131280;27;45386;-85
2022/10/13 05:18:23;;;;;;;;;22.25;22.25;;;;;;;;5134742;27;45374;-75
2022/10/13 05:20:48;;;;;;;;;20.50;20.50;;;;;;;;5130586;27;45409;-74
2022/10/13 05:23:14;;;;;;;;;11.50;11.50;;;;;;;;5127721;27;45364;-77
2022/10/13 05:25:39;;;;;;;;;19.50;19.50;;;;;;;;5123934;27;45456;-78
2022/10/13 05:28:06;;;;;;;;;18.75;18.75;;;;;;;;5122765;27;45415;-73
2022/10/13 05:30:31;;;;;;;;;17.00;16.25;;;;;;;;5122917;27;45202;-76
2022/10/13 05:32:57;;;;;;;;;20.25;20.25;;;;;;;;5122812;27;45237;-72
2022/10/13 05:35:22;;;;;;;;;20.25;20.25;;;;;;;;5123195;27;45292;-77
2022/10/13 05:37:48;;;;;;;;;21.25;21.25;;;;;;;;5122944;27;46453;-76
2022/10/13 05:40:13;;;;;;;;;21.50;21.50;;;;;;;;5123497;27;45860;-77
2022/10/13 05:42:38;;;;;;;;;22.50;22.50;;;;;;;;5123918;27;45384;-77
2022/10/13 05:45:04;;;;;;;;;30.50;27.00;;;;;;;;5122866;27;45705;-76
2022/10/13 05:47:29;;;;;;;;;22.75;21.50;;;;;;;;5123315;27;45819;-76
2022/10/13 05:49:54;;;;;;;;;23.75;23.75;;;;;;;;5126615;27;45297;-72
2022/10/13 05:52:20;;;;;;;;;14.25;13.00;;;;;;;;5128436;27;45456;-77
2022/10/13 05:54:47;;;;;;;;;22.75;21.25;;;;;;;;5122146;27;45529;-75
2022/10/13 05:57:23;;;;;;;;;25.00;25.00;;;;;;;;5121995;27;45514;-73
2022/10/13 05:59:51;;;;;;;;;21.75;21.75;;;;;;;;5119875;27;45505;-71
2022/10/13 06:02:17;;;;;;;;;21.75;21.75;;;;;;;;5120272;27;45244;-75
2022/10/13 06:04:45;;;;;;;;;20.25;20.25;;;;;;;;5119149;27;44989;-74
2022/10/13 06:07:10;;;;;;;;;16.75;16.00;;;;;;;;5121528;27;45415;-77
2022/10/13 06:09:39;;;;;;;;;19.25;19.00;;;;;;;;5122026;27;45349;-74
2022/10/13 06:12:05;;;;;;;;;18.25;18.25;;;;;;;;5121812;27;45379;-78
2022/10/13 06:14:31;;;;;;;;;29.75;29.50;;;;;;;;5122227;27;45357;-77
2022/10/13 06:16:56;;;;;;;;;18.25;18.25;;;;;;;;5122159;27;46021;-77
2022/10/13 06:19:21;;;;;;;;;18.75;18.75;;;;;;;;5119916;27;45537;-74
2022/10/13 06:21:47;;;;;;;;;18.50;18.50;;;;;;;;5122256;27;45304;-83
2022/10/13 06:24:12;;;;;;;;;25.00;24.00;;;;;;;;5128648;27;45604;-83
2022/10/13 06:26:37;;;;;;;;;20.25;20.25;;;;;;;;5128942;27;45382;-72
2022/10/13 06:29:02;;;;;;;;;17.75;17.50;;;;;;;;5120891;27;45328;-73
2022/10/13 06:31:28;;;;;;;;;20.50;19.50;;;;;;;;5122496;27;45287;-75
2022/10/13 06:33:53;;;;;;;;;28.75;28.00;;;;;;;;5122337;27;45240;-71
2022/10/13 06:36:18;;;;;;;;;21.75;21.75;;;;;;;;5128555;27;46423;-82
2022/10/13 06:38:44;;;;;;;;;19.25;19.25;;;;;;;;5133991;27;45340;-84
2022/10/13 06:41:09;;;;;;;;;16.50;16.50;;;;;;;;5134111;27;45218;-78
2022/10/13 06:43:35;;;;;;;;;16.50;16.50;;;;;;;;5127711;27;45166;-74
2022/10/13 06:46:00;;;;;;;;;14.50;14.00;;;;;;;;5120456;27;45548;-78
2022/10/13 06:48:26;;;;;;;;;16.00;15.50;;;;;;;;5121369;27;45436;-72
2022/10/13 06:50:52;;;;;;;;;14.25;13.50;;;;;;;;5121495;27;45335;-75
2022/10/13 06:53:17;;;;;;;;;13.75;13.75;;;;;;;;5130543;27;45565;-74
2022/10/13 06:55:43;;;;;;;;;16.50;16.50;;;;;;;;5128444;27;46046;-82
2022/10/13 06:58:11;;;;;;;;;14.25;14.00;;;;;;;;5125134;27;45202;-75
2022/10/13 07:00:38;;;;;;;;;15.75;15.75;;;;;;;;5122920;27;45348;-84
2022/10/13 07:03:03;;;;;;;;;14.75;14.75;;;;;;;;5124846;27;45293;-76
2022/10/13 07:05:29;;;;;;;;;11.25;11.25;;;;;;;;5126327;27;45305;-81
2022/10/13 07:07:55;;;;;;;;;17.00;17.00;;;;;;;;5124120;27;45841;-78
2022/10/13 07:10:20;;;;;;;;;12.75;12.75;;;;;;;;5123042;27;44703;-84
2022/10/13 07:12:46;;;;;;;;;11.25;11.25;;;;;;;;5124173;27;45542;-81
2022/10/13 07:15:11;;;;;;;;;10.50;10.50;;;;;;;;5123899;27;46062;-77
2022/10/13 07:17:36;;;;;;;;;11.75;10.75;;;;;;;;5123780;27;45245;-82
2022/10/13 07:20:03;;;;;;;;;12.00;12.00;;;;;;;;5124616;27;45390;-72
2022/10/13 07:22:28;;;;;;;;;8.00;8.00;;;;;;;;5123538;27;45503;-75
2022/10/13 07:24:53;;;;;;;;;13.00;13.00;;;;;;;;5122842;27;45397;-74
2022/10/13 07:27:19;;;;;;;;;13.00;13.00;;;;;;;;5120376;27;45314;-74
2022/10/13 07:29:44;;;;;;;;;10.00;9.75;;;;;;;;5119930;27;45765;-74
2022/10/13 07:32:09;;;;;;;;;12.50;12.50;;;;;;;;5120176;27;45538;-72
2022/10/13 07:34:35;;;;;;;;;12.00;12.00;;;;;;;;5121750;27;47398;-77
2022/10/13 07:37:01;;;;;;;;;15.50;15.50;;;;;;;;5121510;27;45155;-79
2022/10/13 07:39:26;;;;;;;;;10.50;10.50;;;;;;;;5123684;27;45294;-79
2022/10/13 07:41:51;;;;;;;;;10.00;10.00;;;;;;;;5121394;27;45239;-77
2022/10/13 07:44:16;;;;;;;;;11.75;11.75;;;;;;;;5120243;27;46010;-76
2022/10/13 07:46:42;;;;;;;;;9.50;9.50;;;;;;;;5122021;27;45209;-76
2022/10/13 07:49:07;;;;;;;;;9.75;9.75;;;;;;;;5120921;27;45226;-73
2022/10/13 07:51:32;;;;;;;;;11.25;11.25;;;;;;;;5119066;27;45626;-75
2022/10/13 07:53:57;;;;;;;;;9.50;9.50;;;;;;;;5119431;27;45410;-76
2022/10/13 07:56:23;;;;;;;;;10.25;10.25;;;;;;;;5118792;27;46156;-73
2022/10/13 07:58:48;;;;;;;;;11.00;11.00;;;;;;;;5120303;27;45214;-74
2022/10/13 08:01:16;;;;;;;;;10.00;10.00;;;;;;;;5120063;27;45421;-72
2022/10/13 08:03:42;;;;;;;;;9.75;9.75;;;;;;;;5118972;27;46286;-77
2022/10/13 08:06:08;;;;;;;;;12.00;12.00;;;;;;;;5119278;27;45472;-73
2022/10/13 08:08:34;;;;;;;;;10.00;10.00;;;;;;;;5117655;27;45513;-72
2022/10/13 08:11:00;;;;;;;;;12.25;12.25;;;;;;;;5120015;27;45552;-77
2022/10/13 08:13:25;;;;;;;;;10.75;10.75;;;;;;;;5119567;27;46239;-73
2022/10/13 08:15:51;;;;;;;;;10.25;10.25;;;;;;;;5119298;27;45255;-73
2022/10/13 08:18:16;;;;;;;;;11.25;11.25;;;;;;;;5119200;27;45419;-79
2022/10/13 08:20:42;;;;;;;;;9.25;9.25;;;;;;;;5119156;27;45423;-75
2022/10/13 08:23:08;;;;;;;;;11.50;11.50;;;;;;;;5120026;27;46912;-77
2022/10/13 08:25:37;;;;;;;;;9.00;9.00;;;;;;;;5125531;27;45403;-80
2022/10/13 08:28:02;;;;;;;;;11.50;11.50;;;;;;;;5119732;27;45330;-84
2022/10/13 08:30:28;;;;;;;;;10.50;10.50;;;;;;;;5120417;27;45526;-81
2022/10/13 08:32:53;;;;;;;;;9.00;9.00;;;;;;;;5121102;27;46588;-82
2022/10/13 08:35:18;;;;;;;;;9.25;9.25;;;;;;;;5123143;27;45449;-78
2022/10/13 08:37:43;;;;;;;;;10.75;10.75;;;;;;;;5123439;27;45365;-74
2022/10/13 08:40:12;;;;;;;;;8.75;8.75;;;;;;;;5124380;27;45548;-73
2022/10/13 08:42:41;;;;;;;;;9.75;9.25;;;;;;;;5123746;27;46188;-74
2022/10/13 08:45:07;;;;;;;;;10.75;10.75;;;;;;;;5128974;27;45378;-74
2022/10/13 08:47:47;;;;;;;;;9.25;9.25;;;;;;;;5130293;27;44837;-74
2022/10/13 08:50:14;;;;;;;;;11.00;11.00;;;;;;;;5129811;27;45171;-72
2022/10/13 08:52:43;;;;;;;;;10.25;10.25;;;;;;;;5131319;27;46194;-74
2022/10/13 08:55:12;;;;;;;;;15.00;15.00;;;;;;;;5129342;27;45494;-75
2022/10/13 08:57:37;;;;;;;;;9.00;9.00;;;;;;;;5131020;27;45282;-76
2022/10/13 09:00:04;;;;;;;;;9.00;9.00;;;;;;;;5134514;27;45565;-75
2022/10/13 09:02:30;;;;;;;;;8.25;8.25;;;;;;;;5135534;27;46609;-73
2022/10/13 09:04:57;;;;;;;;;10.75;10.75;;;;;;;;5130257;27;45344;-75
2022/10/13 09:07:27;;;;;;;;;10.25;9.00;;;;;;;;5128470;27;45428;-77
2022/10/13 09:09:53;;;;;;;;;8.75;8.75;;;;;;;;5130169;27;45169;-77
2022/10/13 09:12:28;;;;;;;;;10.25;10.25;;;;;;;;5129230;27;45257;-76
2022/10/13 09:15:08;;;;;;;;;10.75;10.00;;;;;;;;5128477;27;45246;-75
2022/10/13 09:17:34;;;;;;;;;6.50;6.50;;;;;;;;5127247;27;45487;-79
2022/10/13 09:20:15;;;;;;;;;9.25;7.75;;;;;;;;5129441;27;44968;-74
2022/10/13 09:22:41;;;;;;;;;8.75;8.75;;;;;;;;5125861;27;45302;-77
2022/10/13 09:25:06;;;;;;;;;9.00;8.00;;;;;;;;5122049;27;45328;-76
2022/10/13 09:28:00;;;;;;;;;12.25;12.25;;;;;;;;5125403;27;45333;-77
2022/10/13 09:30:25;;;;;;;;;8.75;8.75;;;;;;;;5103738;27;45502;-79
2022/10/13 09:33:12;;;;;;;;;9.75;9.75;;;;;;;;5124305;27;45997;-77
2022/10/13 09:35:40;;;;;;;;;16.75;16.75;;;;;;;;5125247;27;45359;-78
2022/10/13 09:38:05;;;;;;;;;8.00;8.00;;;;;;;;5122951;27;45387;-80
2022/10/13 09:40:31;;;;;;;;;7.00;7.00;;;;;;;;5126231;27;45189;-76
2022/10/13 09:42:57;;;;;;;;;6.25;6.25;;;;;;;;5125989;27;45962;-75
2022/10/13 09:45:24;;;;;;;;;8.75;8.75;;;;;;;;5128062;27;45273;-76
2022/10/13 09:47:50;;;;;;;;;7.00;7.00;;;;;;;;5129426;27;45311;-82
2022/10/13 09:50:16;;;;;;;;;16.00;16.00;;;;;;;;5124029;27;45313;-77
2022/10/13 09:52:41;;;;;;;;;8.00;8.00;;;;;;;;5124206;27;45855;-74
2022/10/13 09:55:26;;;;;;;;;14.50;14.50;;;;;;;;5124016;27;45256;-78
2022/10/13 09:57:54;;;;;;;;;9.25;9.25;;;;;;;;5128962;27;45289;-78
2022/10/13 10:00:26;;;;;;;;;9.00;9.00;;;;;;;;5129360;27;45423;-80
2022/10/13 10:03:05;;;;;;;;;12.00;10.75;;;;;;;;5127574;27;45312;-80
2022/10/13 10:05:39;;;;;;;;;7.25;7.25;;;;;;;;5131115;27;45368;-82
2022/10/13 10:08:13;;;;;;;;;8.00;8.00;;;;;;;;5134174;27;45403;-76
2022/10/13 10:10:39;;;;;;;;;10.25;10.25;;;;;;;;5133150;27;45461;-74
2022/10/13 10:13:04;;;;;;;;;9.50;9.50;;;;;;;;5127253;27;45755;-73
2022/10/13 10:15:50;;;;;;;;;8.25;8.25;;;;;;;;5128967;27;45382;-74
2022/10/13 10:18:23;;;;;;;;;12.50;12.50;;;;;;;;5085862;27;45440;-74
2022/10/13 10:21:17;;;;;;;;;10.25;10.25;;;;;;;;5126005;27;45759;-72
2022/10/13 10:23:48;;;;;;;;;15.00;15.00;;;;;;;;5114237;27;45440;-74
2022/10/13 10:26:16;;;;;;;;;7.25;7.25;;;;;;;;5124770;27;45271;-80
2022/10/13 10:28:44;;;;;;;;;8.50;7.75;;;;;;;;5125554;27;45467;-77
2022/10/13 10:31:09;;;;;;;;;22.50;22.50;;;;;;;;5123909;27;45315;-78
2022/10/13 10:33:55;;;;;;;;;10.00;10.00;;;;;;;;5127225;27;45419;-79
2022/10/13 10:36:23;;;;;;;;;6.50;6.50;;;;;;;;5133501;27;45359;-74
2022/10/13 10:38:51;;;;;;;;;29.00;27.00;;;;;;;;5131731;27;45448;-77
2022/10/13 10:41:25;;;;;;;;;9.75;9.75;;;;;;;;5131273;27;45329;-76
2022/10/13 10:43:56;;;;;;;;;8.00;8.00;;;;;;;;5132379;27;45439;-75
2022/10/13 10:46:23;;;;;;;;;12.50;12.50;;;;;;;;5132199;27;45276;-79
2022/10/13 10:48:52;;;;;;;;;7.00;7.00;;;;;;;;5133438;27;45311;-84
2022/10/13 10:51:18;;;;;;;;;8.75;8.75;;;;;;;;5133620;27;45215;-85
2022/10/13 10:53:51;;;;;;;;;11.25;11.25;;;;;;;;5136944;27;46561;-83
2022/10/13 10:56:20;;;;;;;;;12.25;12.25;;;;;;;;5133022;27;45295;-74
2022/10/13 10:58:58;;;;;;;;;11.25;11.25;;;;;;;;5132962;27;45223;-84
2022/10/13 11:01:42;;;;;;;;;9.75;9.75;;;;;;;;5133409;27;45152;-83
2022/10/13 11:04:30;;;;;;;;;8.50;8.50;;;;;;;;5133985;27;45318;-80
2022/10/13 11:10:19;;;;;;;;;9.00;9.00;;;;;;;;5132549;27;45522;-75
2022/10/13 11:12:45;;;;;;;;;11.25;11.25;;;;;;;;5133433;27;45257;-80
2022/10/13 11:15:11;;;;;;;;;12.75;11.00;;;;;;;;5136278;27;46655;-80
2022/10/13 11:17:37;;;;;;;;;11.00;11.00;;;;;;;;5136246;27;45238;-78
2022/10/13 11:20:27;;;;;;;;;16.00;16.00;;;;;;;;5133382;27;45397;-77
2022/10/13 11:22:59;;;;;;;;;9.25;9.25;;;;;;;;5120804;27;45156;-79
2022/10/13 11:25:38;;;;;;;;;16.75;16.25;;;;;;;;5130944;27;46217;-74
2022/10/13 11:28:26;;;;;;;;;10.00;10.00;;;;;;;;5127021;27;45317;-73
2022/10/13 11:30:54;;;;;;;;;13.00;13.00;;;;;;;;5126669;27;45518;-73
2022/10/13 11:33:44;;;;;;;;;13.25;13.25;;;;;;;;5127254;27;45337;-73
2022/10/13 11:36:29;;;;;;;;;2.75;2.75;;;;;;;;5115197;27;46916;-72
2022/10/13 11:39:01;;;;;;;;;10.00;10.00;;;;;;;;5108288;27;45491;-72
2022/10/13 11:41:30;;;;;;;;;15.50;15.50;;;;;;;;5126606;27;45330;-74
2022/10/13 11:44:06;;;;;;;;;11.75;11.75;;;;;;;;5124053;27;45570;-72
2022/10/13 11:46:59;;;;;;;;;10.00;10.00;;;;;;;;5125422;27;45414;-74
2022/10/13 11:49:41;;;;;;;;;13.00;13.00;;;;;;;;5119321;27;45365;-74
2022/10/13 11:52:25;;;;;;;;;7.00;7.00;;;;;;;;5123120;27;45282;-74
2022/10/13 11:54:54;;;;;;;;;20.25;20.25;;;;;;;;5126348;27;45513;-76
2022/10/13 11:57:22;;;;;;;;;12.50;12.50;;;;;;;;5126791;27;46201;-78
2022/10/13 11:59:54;;;;;;;;;14.50;14.50;;;;;;;;5129389;27;45411;-72
2022/10/13 12:02:21;;;;;;;;;14.25;13.00;;;;;;;;5125437;27;45301;-75
2022/10/13 12:05:25;;;;;;;;;14.00;14.00;;;;;;;;5124619;27;45368;-72
2022/10/13 12:07:53;;;;;;;;;11.50;11.50;;;;;;;;5049957;28;45464;-73
2022/10/13 12:10:24;;;;;;;;;12.25;12.00;;;;;;;;5042124;28;45305;-80
2022/10/13 12:12:50;;;;;;;;;18.50;18.50;;;;;;;;5084908;27;45248;-79
2022/10/13 12:15:34;;;;;;;;;18.25;17.75;;;;;;;;5124697;27;45487;-74
2022/10/13 12:17:59;;;;;;;;;18.00;17.00;;;;;;;;5128371;27;46246;-82
2022/10/13 12:20:26;;;;;;;;;19.25;19.25;;;;;;;;5126083;27;45710;-79
2022/10/13 12:22:52;;;;;;;;;17.50;17.50;;;;;;;;5130453;27;44868;-76
2022/10/13 12:25:19;;;;;;;;;16.50;16.25;;;;;;;;5134126;27;45346;-73
2022/10/13 12:27:49;;;;;;;;;14.50;14.50;;;;;;;;5136543;27;44971;-76
2022/10/13 12:30:36;;;;;;;;;19.00;19.00;;;;;;;;5135374;27;45212;-75
2022/10/13 12:33:02;;;;;;;;;20.25;20.25;;;;;;;;5136885;27;45336;-74
2022/10/13 12:35:29;;;;;;;;;13.50;13.50;;;;;;;;5137271;27;45334;-74
2022/10/13 12:37:56;;;;;;;;;46.75;39.25;;;;;;;;5136488;27;46232;-74
2022/10/13 12:40:21;;;;;;;;;16.25;16.25;;;;;;;;5131884;27;45269;-78
2022/10/13 12:42:47;;;;;;;;;14.50;14.50;;;;;;;;5131213;27;45285;-76
2022/10/13 12:45:14;;;;;;;;;15.25;15.00;;;;;;;;5125281;27;45532;-77
2022/10/13 12:47:43;;;;;;;;;16.00;16.00;;;;;;;;5121865;27;45274;-76
2022/10/13 12:50:21;;;;;;;;;18.00;18.00;;;;;;;;5122507;27;45274;-82
2022/10/13 12:52:47;;;;;;;;;14.75;14.75;;;;;;;;5122061;27;45325;-76
2022/10/13 12:55:16;;;;;;;;;20.75;20.75;;;;;;;;5121626;27;45344;-80
2022/10/13 12:57:43;;;;;;;;;17.75;17.75;;;;;;;;5122005;27;46431;-82
2022/10/13 13:00:17;;;;;;;;;23.50;23.50;;;;;;;;5124200;27;45341;-80
2022/10/13 13:02:49;;;;;;;;;22.25;22.25;;;;;;;;5126062;27;45445;-82
2022/10/13 13:05:34;;;;;;;;;17.00;17.00;;;;;;;;5120278;27;45229;-78
2022/10/13 13:08:00;;;;;;;;;33.25;31.75;;;;;;;;5120101;27;47153;-76
2022/10/13 13:10:25;;;;;;;;;19.25;19.25;;;;;;;;5124637;27;45605;-78
2022/10/13 13:12:51;;;;;;;;;18.00;18.00;;;;;;;;5122279;27;45227;-73
2022/10/13 13:15:34;;;;;;;;;15.50;15.50;;;;;;;;5119543;27;45546;-75
2022/10/13 13:18:18;;;;;;;;;18.50;18.50;;;;;;;;5118255;27;46100;-73
2022/10/13 13:20:44;;;;;;;;;15.75;15.75;;;;;;;;5118825;27;45257;-79
2022/10/13 13:23:09;;;;;;;;;15.75;15.75;;;;;;;;5119300;27;45301;-73
2022/10/13 13:25:34;;;;;;;;;15.75;15.75;;;;;;;;5126114;27;45116;-72
2022/10/13 13:28:02;;;;;;;;;12.25;12.25;;;;;;;;5124076;27;46256;-72
2022/10/13 13:30:27;;;;;;;;;12.75;12.75;;;;;;;;5119135;27;45412;-73
2022/10/13 13:32:53;;;;;;;;;12.50;12.50;;;;;;;;5124043;27;45525;-86
2022/10/13 13:35:18;;;;;;;;;16.00;16.00;;;;;;;;5127707;27;45352;-82
2022/10/13 13:37:48;;;;;;;;;14.00;13.00;;;;;;;;5124988;27;48139;-88
2022/10/13 13:40:15;;;;;;;;;12.25;12.25;;;;;;;;5128775;27;45253;-86
2022/10/13 13:42:40;;;;;;;;;11.75;11.75;;;;;;;;5133300;27;45341;-88
2022/10/13 13:45:06;;;;;;;;;10.75;10.75;;;;;;;;5128336;27;45648;-86
2022/10/13 13:47:32;;;;;;;;;12.75;12.75;;;;;;;;5128526;27;46467;-74
2022/10/13 13:49:57;;;;;;;;;16.50;16.50;;;;;;;;5130736;27;45334;-73
2022/10/13 13:52:24;;;;;;;;;10.25;10.25;;;;;;;;5131474;27;45301;-83
2022/10/13 13:54:49;;;;;;;;;9.00;9.00;;;;;;;;5125974;27;45600;-81
2022/10/13 13:57:15;;;;;;;;;12.50;12.50;;;;;;;;5125890;27;47432;-72
2022/10/13 13:59:41;;;;;;;;;18.00;18.00;;;;;;;;5128647;27;45309;-80
2022/10/13 14:02:10;;;;;;;;;11.50;11.00;;;;;;;;5126936;27;45261;-83
2022/10/13 14:04:35;;;;;;;;;11.50;11.50;;;;;;;;5126644;27;45282;-81
2022/10/13 14:07:00;;;;;;;;;11.25;11.25;;;;;;;;5124130;27;45498;-78
2022/10/13 14:09:26;;;;;;;;;13.00;13.00;;;;;;;;5125378;27;45447;-78
2022/10/13 14:11:51;;;;;;;;;15.25;15.25;;;;;;;;5132542;27;45207;-82
2022/10/13 14:14:16;;;;;;;;;15.25;15.25;;;;;;;;5127668;27;45405;-83
2022/10/13 14:16:41;;;;;;;;;16.50;16.50;;;;;;;;5129757;27;45308;-80
2022/10/13 14:19:07;;;;;;;;;13.00;13.00;;;;;;;;5127143;27;45264;-79
2022/10/13 14:21:33;;;;;;;;;13.75;13.75;;;;;;;;5133166;27;45336;-75
2022/10/13 14:23:58;;;;;;;;;14.00;14.00;;;;;;;;5135972;27;45562;-76
2022/10/13 14:26:23;;;;;;;;;13.50;13.50;;;;;;;;5129956;27;46289;-85
2022/10/13 14:28:48;;;;;;;;;21.75;21.75;;;;;;;;5126137;27;45302;-85
2022/10/13 14:31:14;;;;;;;;;18.75;17.75;;;;;;;;5108940;27;45365;-74